Decoded Metar for LFJR (ANGERS in FRANCE) (IATA:N/A) | Meteo·Mobile Aviation Weather
aviador You're here:

LFJR Decoded Metar

ANGERS in FRANCE
Report Time2019-02-16 18:00:00
UTC Time2019-02-16 18:11:26
Flight Rules vfr VFR
Wind080° at 03 kt
W.Decomp.*RWY 08: 3.0 kt HW 0.1 kt RCW
W.Rank080° ranks 23
Current wind is below 080° avg. (5.5)
Visibility9999 m
Phenomena:N/A
Clouds:N/A
Expected CloudBase > 1,600 ft AGL from Temp-Dew spread
CeilingNone
Temp10°C (ISA -5)
Dew Point06°C (76% RH)
AAT8.0°C
QNH1023 hPa
Density Alt-564 ft
Elevation197 ft
Report Wrong Elevation
Raw Report
METAR LFJR 161800Z AUTO 08003KT CAVOK 10/06 Q1023 NOSIG=

Extra information for LFJR:More info

Metar Taf Metar & Taf Last 4 Metars F.Rules Stats Wind Profile Meteogram Temp Stats Airport Information Weather charts Add Link Nearby VenuesMetar ALERT Operation Metar Decoded Social comments